createdAt,value
2022-09-20T00:04:45.523Z,100.00
2022-09-20T00:09:36.201Z,100.00
2022-09-20T00:14:27.756Z,100.00
2022-09-20T00:19:24.269Z,100.00
2022-09-20T00:24:16.060Z,100.00
2022-09-20T00:29:08.020Z,100.00
2022-09-20T00:34:11.075Z,100.00
2022-09-20T00:39:07.937Z,100.00
2022-09-20T00:43:59.026Z,100.00
2022-09-20T00:48:49.943Z,100.00
2022-09-20T00:53:43.700Z,100.00
2022-09-20T00:58:41.300Z,100.00
2022-09-20T01:03:34.189Z,100.00
2022-09-20T01:08:29.213Z,100.00
2022-09-20T01:13:21.963Z,100.00
2022-09-20T01:18:15.788Z,100.00
2022-09-20T01:23:20.110Z,100.00
2022-09-20T01:28:13.375Z,100.00
2022-09-20T01:33:14.369Z,100.00
2022-09-20T01:38:22.147Z,100.00
2022-09-20T01:43:21.550Z,100.00
2022-09-20T01:48:21.845Z,100.00
2022-09-20T01:53:43.499Z,100.00
2022-09-20T01:59:25.158Z,100.00
2022-09-20T02:04:57.205Z,100.00
2022-09-20T02:10:19.473Z,100.00
2022-09-20T02:15:28.279Z,100.00
2022-09-20T02:20:35.146Z,100.00
2022-09-20T02:25:44.631Z,100.00
2022-09-20T02:30:51.400Z,100.00
2022-09-20T02:36:01.617Z,100.00
2022-09-20T02:41:14.536Z,100.00
2022-09-20T02:46:18.878Z,100.00
2022-09-20T02:51:18.742Z,100.00
2022-09-20T02:56:18.022Z,100.00
2022-09-20T03:01:29.250Z,100.00
2022-09-20T03:06:36.250Z,100.00
2022-09-20T03:11:35.180Z,100.00
2022-09-20T03:16:37.665Z,100.00
2022-09-20T03:21:39.065Z,100.00
2022-09-20T03:26:41.270Z,100.00
2022-09-20T03:31:48.305Z,100.00
2022-09-20T03:36:53.243Z,100.00
2022-09-20T03:41:58.121Z,100.00
2022-09-20T03:46:55.262Z,100.00
2022-09-20T03:51:52.133Z,100.00
2022-09-20T03:57:16.060Z,100.00
2022-09-20T04:02:27.485Z,100.00
2022-09-20T04:07:24.883Z,100.00
2022-09-20T04:12:26.956Z,100.00
2022-09-20T04:17:34.797Z,100.00
2022-09-20T04:22:28.314Z,100.00
2022-09-20T04:27:24.781Z,100.00
2022-09-20T04:32:24.823Z,100.00
2022-09-20T04:37:26.148Z,100.00
2022-09-20T04:42:45.298Z,100.00
2022-09-20T04:48:13.649Z,100.00
2022-09-20T04:53:44.722Z,100.00
2022-09-20T04:58:51.369Z,100.00
2022-09-20T05:04:11.118Z,100.00
2022-09-20T05:09:29.276Z,100.00
2022-09-20T05:14:51.584Z,100.00
2022-09-20T05:20:01.868Z,100.00
2022-09-20T05:25:43.449Z,100.00
2022-09-20T05:30:41.067Z,100.00
2022-09-20T05:35:41.942Z,100.00
2022-09-20T05:40:40.286Z,100.00
2022-09-20T05:46:01.877Z,100.00
2022-09-20T05:51:03.856Z,100.00
2022-09-20T05:56:09.552Z,100.00
2022-09-20T06:01:05.947Z,100.00
2022-09-20T06:06:07.118Z,100.00
2022-09-20T06:11:21.384Z,100.00
2022-09-20T06:16:20.319Z,100.00
2022-09-20T06:21:27.019Z,100.00
2022-09-20T06:26:23.548Z,100.00
2022-09-20T06:31:15.733Z,100.00
2022-09-20T06:36:22.266Z,100.00
2022-09-20T06:41:28.781Z,100.00
2022-09-20T06:46:21.240Z,100.00
2022-09-20T06:51:12.753Z,100.00
2022-09-20T06:56:04.986Z,100.00
2022-09-20T07:00:58.418Z,100.00
2022-09-20T07:05:49.019Z,100.00
2022-09-20T07:10:40.704Z,100.00
2022-09-20T07:15:33.620Z,100.00
2022-09-20T07:20:27.013Z,100.00
2022-09-20T07:25:18.269Z,100.00
2022-09-20T07:30:13.915Z,100.00
2022-09-20T07:35:04.644Z,100.00
2022-09-20T07:39:57.821Z,100.00
2022-09-20T07:44:51.473Z,100.00
2022-09-20T07:49:41.806Z,100.00
2022-09-20T07:54:32.566Z,100.00
2022-09-20T07:59:28.315Z,100.00
2022-09-20T08:04:19.093Z,100.00
2022-09-20T08:09:11.306Z,100.00
2022-09-20T08:14:05.205Z,100.00
2022-09-20T08:19:00.833Z,100.00
2022-09-20T08:23:54.187Z,100.00
2022-09-20T08:28:47.975Z,100.00
2022-09-20T08:33:39.056Z,100.00
2022-09-20T08:43:46.815Z,100.00
2022-09-20T08:48:38.942Z,100.00
2022-09-20T08:53:32.269Z,100.00
2022-09-20T08:58:21.884Z,100.00
2022-09-20T09:03:16.968Z,100.00
2022-09-20T09:08:16.224Z,100.00
2022-09-20T09:13:09.725Z,100.00
2022-09-20T09:18:01.513Z,100.00
2022-09-20T09:23:00.873Z,100.00
2022-09-20T09:27:57.172Z,100.00
2022-09-20T09:32:51.035Z,100.00
2022-09-20T09:37:40.863Z,100.00
2022-09-20T09:42:33.187Z,95.93
2022-09-20T09:47:31.298Z,93.06
2022-09-20T09:52:26.379Z,92.68
2022-09-20T09:57:46.748Z,92.22
2022-09-20T10:03:12.007Z,89.71
2022-09-20T10:08:18.542Z,87.43
2022-09-20T10:13:21.487Z,83.07
2022-09-20T10:18:36.559Z,81.12
2022-09-20T10:24:02.486Z,79.71
2022-09-20T10:29:05.793Z,77.65
2022-09-20T10:34:21.802Z,81.57
2022-09-20T10:39:24.902Z,82.33
2022-09-20T10:44:32.350Z,78.37
2022-09-20T10:49:38.852Z,78.82
2022-09-20T10:54:50.039Z,79.78
2022-09-20T10:59:49.232Z,79.59
2022-09-20T11:05:13.276Z,83.44
2022-09-20T11:10:17.513Z,83.16
2022-09-20T11:15:18.740Z,86.44
2022-09-20T11:20:21.378Z,88.73
2022-09-20T11:25:24.977Z,89.68
2022-09-20T11:30:21.442Z,92.26
2022-09-20T11:35:34.348Z,93.96
2022-09-20T11:40:35.755Z,94.55
2022-09-20T11:45:28.678Z,95.90
2022-09-20T11:50:53.764Z,95.50
2022-09-20T11:55:54.420Z,94.62
2022-09-20T12:00:48.299Z,91.03
2022-09-20T12:05:42.002Z,87.91
2022-09-20T12:10:35.504Z,88.24
2022-09-20T12:15:34.402Z,85.04
2022-09-20T12:21:03.926Z,80.05
2022-09-20T12:26:06.786Z,77.77
2022-09-20T12:31:29.880Z,80.70
2022-09-20T12:36:23.695Z,79.12
2022-09-20T12:41:26.199Z,79.58
2022-09-20T12:46:32.885Z,81.58
2022-09-20T12:51:48.900Z,82.54
2022-09-20T12:56:46.668Z,83.76
2022-09-20T13:01:43.974Z,84.02
2022-09-20T13:06:37.278Z,83.79
2022-09-20T13:11:31.672Z,83.67
2022-09-20T13:16:25.936Z,83.24
2022-09-20T13:21:17.151Z,80.30
2022-09-20T13:26:16.376Z,80.33
2022-09-20T13:31:28.543Z,79.31
2022-09-20T13:36:30.416Z,80.67
2022-09-20T13:41:24.112Z,81.80
2022-09-20T13:46:19.884Z,80.20
2022-09-20T13:51:21.662Z,79.77
2022-09-20T13:56:17.345Z,78.54
2022-09-20T14:01:25.401Z,77.21
2022-09-20T14:06:18.067Z,73.52
2022-09-20T14:11:19.115Z,71.62
2022-09-20T14:16:13.520Z,69.04
2022-09-20T14:21:04.947Z,68.92
2022-09-20T14:26:24.917Z,70.21
2022-09-20T14:31:22.469Z,70.02
2022-09-20T14:36:18.751Z,69.81
2022-09-20T14:41:09.570Z,69.92
2022-09-20T14:46:03.639Z,69.63
2022-09-20T14:51:22.681Z,65.47
2022-09-20T14:56:15.354Z,62.51
2022-09-20T15:01:09.970Z,63.53
2022-09-20T15:06:01.127Z,64.81
2022-09-20T15:10:56.618Z,64.37
2022-09-20T15:15:49.634Z,66.90
2022-09-20T15:20:42.504Z,67.76
2022-09-20T15:25:34.110Z,67.76
2022-09-20T15:30:26.814Z,66.86
2022-09-20T15:35:16.751Z,66.01
2022-09-20T15:40:10.225Z,66.72
2022-09-20T15:45:00.519Z,66.24
2022-09-20T15:49:55.266Z,65.79
2022-09-20T15:54:48.450Z,66.00
2022-09-20T15:59:44.736Z,64.53
2022-09-20T16:04:36.593Z,64.32
2022-09-20T16:09:30.108Z,63.53
2022-09-20T16:14:20.437Z,63.61
2022-09-20T16:19:23.150Z,65.51
2022-09-20T16:24:16.247Z,65.99
2022-09-20T16:29:08.686Z,67.83
2022-09-20T16:33:58.868Z,68.87
2022-09-20T16:38:48.989Z,70.07
2022-09-20T16:43:41.693Z,70.95
2022-09-20T16:48:36.468Z,71.90
2022-09-20T16:53:26.771Z,75.43
2022-09-20T16:58:16.750Z,76.80
2022-09-20T17:03:06.708Z,78.48
2022-09-20T17:08:04.937Z,78.71
2022-09-20T17:12:58.473Z,76.44
2022-09-20T17:17:50.620Z,76.79
2022-09-20T17:22:40.120Z,79.74
2022-09-20T17:27:33.591Z,79.90
2022-09-20T17:32:23.128Z,79.76
2022-09-20T17:37:12.579Z,81.02
2022-09-20T17:42:02.179Z,82.92
2022-09-20T17:46:55.058Z,82.80
2022-09-20T17:51:45.160Z,84.38
2022-09-20T17:56:35.740Z,85.25
2022-09-20T18:01:26.014Z,85.78
2022-09-20T18:06:19.768Z,86.75
2022-09-20T18:11:09.483Z,87.70
2022-09-20T18:15:59.150Z,87.49
2022-09-20T18:20:48.573Z,88.57
2022-09-20T18:25:52.732Z,88.80
2022-09-20T18:30:42.072Z,89.90
2022-09-20T18:35:31.403Z,90.13
2022-09-20T18:40:23.023Z,91.28
2022-09-20T18:45:16.591Z,91.00
2022-09-20T18:50:10.496Z,91.52
2022-09-20T18:55:01.644Z,93.03
2022-09-20T18:59:55.259Z,93.38
2022-09-20T19:05:03.713Z,93.31
2022-09-20T19:10:01.829Z,94.32
2022-09-20T19:15:00.069Z,95.54
2022-09-20T19:19:53.391Z,96.17
2022-09-20T19:24:50.104Z,95.41
2022-09-20T19:29:42.680Z,95.44
2022-09-20T19:34:33.409Z,95.16
2022-09-20T19:39:26.844Z,96.35
2022-09-20T19:44:25.835Z,97.67
2022-09-20T19:49:19.548Z,97.93
2022-09-20T19:54:12.046Z,98.45
2022-09-20T19:59:01.649Z,98.26
2022-09-20T20:03:51.400Z,98.07
2022-09-20T20:08:50.773Z,98.00
2022-09-20T20:13:59.897Z,99.82
2022-09-20T20:18:57.719Z,100.00
2022-09-20T20:23:55.711Z,100.00
2022-09-20T20:28:45.051Z,100.00
2022-09-20T20:33:34.681Z,100.00
2022-09-20T20:38:29.727Z,100.00
2022-09-20T20:43:21.749Z,100.00
2022-09-20T20:48:14.372Z,100.00
2022-09-20T20:53:06.988Z,100.00
2022-09-20T20:57:58.521Z,100.00
2022-09-20T21:02:50.903Z,100.00
2022-09-20T21:07:40.783Z,100.00
2022-09-20T21:12:31.086Z,100.00
2022-09-20T21:17:21.112Z,100.00
2022-09-20T21:22:13.773Z,100.00
2022-09-20T21:27:04.725Z,100.00
2022-09-20T21:31:54.203Z,100.00
2022-09-20T21:36:44.780Z,100.00
2022-09-20T21:41:37.737Z,100.00
2022-09-20T21:46:28.340Z,100.00
2022-09-20T21:51:18.921Z,100.00
2022-09-20T21:56:09.095Z,100.00
2022-09-20T22:01:02.230Z,100.00
2022-09-20T22:05:51.668Z,100.00
2022-09-20T22:10:41.019Z,100.00
2022-09-20T22:15:30.353Z,100.00
2022-09-20T22:20:27.877Z,100.00
2022-09-20T22:25:18.141Z,100.00
2022-09-20T22:30:08.403Z,100.00
2022-09-20T22:34:59.467Z,100.00
2022-09-20T22:39:51.773Z,100.00
2022-09-20T22:44:41.383Z,100.00
2022-09-20T22:49:30.961Z,100.00
2022-09-20T22:54:20.549Z,100.00
2022-09-20T22:59:13.756Z,100.00
2022-09-20T23:04:04.499Z,100.00
2022-09-20T23:08:55.060Z,100.00
2022-09-20T23:13:44.642Z,100.00
2022-09-20T23:18:37.157Z,100.00
2022-09-20T23:23:26.767Z,100.00
2022-09-20T23:28:16.368Z,100.00
2022-09-20T23:33:05.953Z,100.00
2022-09-20T23:37:58.383Z,100.00
2022-09-20T23:42:48.180Z,100.00
2022-09-20T23:47:37.790Z,100.00
2022-09-20T23:52:27.265Z,100.00
2022-09-20T23:57:19.487Z,100.00
